createdAt,value
2018-12-29T00:02:27.340Z,100503.50
2018-12-29T00:04:55.729Z,100502.63
2018-12-29T00:07:24.103Z,100502.70
2018-12-29T00:09:52.486Z,100503.15
2018-12-29T00:12:20.866Z,100511.55
2018-12-29T00:14:54.966Z,100509.37
2018-12-29T00:17:19.340Z,100510.23
2018-12-29T00:19:47.710Z,100514.23
2018-12-29T00:22:16.093Z,100511.59
2018-12-29T00:24:44.472Z,100503.67
2018-12-29T00:27:12.855Z,100505.92
2018-12-29T00:29:41.269Z,100505.92
2018-12-29T00:32:09.650Z,100512.14
2018-12-29T00:34:38.023Z,100515.23
2018-12-29T00:37:06.400Z,100507.83
2018-12-29T00:39:34.776Z,100513.11
2018-12-29T00:42:03.154Z,100505.64
2018-12-29T00:44:31.527Z,100506.13
2018-12-29T00:46:59.919Z,100499.53
2018-12-29T00:49:28.284Z,100498.20
2018-12-29T00:51:56.664Z,100508.77
2018-12-29T00:54:26.438Z,100507.97
2018-12-29T00:56:54.889Z,100509.28
2018-12-29T00:59:23.279Z,100510.60
2018-12-29T01:01:51.887Z,100500.56
2018-12-29T01:04:20.263Z,100500.56
2018-12-29T01:06:48.630Z,100505.45
2018-12-29T01:09:17.014Z,100509.41
2018-12-29T01:11:46.373Z,100513.38
2018-12-29T01:14:14.757Z,100516.46
2018-12-29T01:16:43.124Z,100512.95
2018-12-29T01:19:11.717Z,100529.73
2018-12-29T01:21:40.092Z,100531.45
2018-12-29T01:24:08.469Z,100522.94
2018-12-29T01:26:36.847Z,100522.94
2018-12-29T01:29:05.229Z,100536.35
2018-12-29T01:31:33.599Z,100538.99
2018-12-29T01:34:01.977Z,100543.47
2018-12-29T01:36:30.349Z,100546.97
2018-12-29T01:38:58.727Z,100538.19
2018-12-29T01:41:27.099Z,100536.94
2018-12-29T01:43:55.472Z,100542.66
2018-12-29T01:46:23.850Z,100550.13
2018-12-29T01:48:52.221Z,100549.67
2018-12-29T01:51:20.598Z,100543.11
2018-12-29T01:53:48.971Z,100540.16
2018-12-29T01:56:17.350Z,100537.97
2018-12-29T01:58:45.718Z,100541.41
2018-12-29T02:01:14.100Z,100541.05
2018-12-29T02:03:42.468Z,100537.09
2018-12-29T02:06:10.856Z,100533.62
2018-12-29T02:08:39.229Z,100527.48
2018-12-29T02:13:28.318Z,100536.48
2018-12-29T02:15:56.717Z,100531.95
2018-12-29T02:18:25.082Z,100527.99
2018-12-29T02:20:53.453Z,100528.92
2018-12-29T02:23:21.836Z,100524.09
2018-12-29T02:25:50.209Z,100530.31
2018-12-29T02:28:18.607Z,100532.46
2018-12-29T02:30:46.969Z,100526.35
2018-12-29T02:33:15.354Z,100530.31
2018-12-29T02:35:43.723Z,100526.80
2018-12-29T02:38:12.358Z,100528.13
2018-12-29T02:40:40.731Z,100524.61
2018-12-29T02:43:09.114Z,100520.27
2018-12-29T02:45:37.485Z,100502.64
2018-12-29T02:48:05.936Z,100524.30
2018-12-29T02:50:34.307Z,100527.00
2018-12-29T02:53:02.684Z,100528.37
2018-12-29T02:55:31.063Z,100527.38
2018-12-29T02:57:59.455Z,100521.72
2018-12-29T03:00:27.824Z,100513.73
2018-12-29T03:02:56.203Z,100510.75
2018-12-29T03:05:24.575Z,100509.78
2018-12-29T03:07:52.953Z,100508.91
2018-12-29T03:10:21.336Z,100513.73
2018-12-29T03:12:49.783Z,100513.73
2018-12-29T03:15:18.159Z,100521.98
2018-12-29T03:17:46.553Z,100527.61
2018-12-29T03:20:15.169Z,100527.54
2018-12-29T03:22:43.563Z,100523.23
2018-12-29T03:25:12.767Z,100526.87
2018-12-29T03:27:41.153Z,100524.30
2018-12-29T03:30:09.613Z,100531.34
2018-12-29T03:32:38.001Z,100516.03
2018-12-29T03:35:06.538Z,100533.17
2018-12-29T03:37:34.944Z,100541.09
2018-12-29T03:40:04.390Z,100538.06
2018-12-29T03:42:32.766Z,100535.48
2018-12-29T03:45:01.142Z,100524.94
2018-12-29T03:47:29.529Z,100524.07
2018-12-29T03:49:57.907Z,100530.73
2018-12-29T03:52:26.283Z,100526.32
2018-12-29T03:54:54.655Z,100521.56
2018-12-29T03:57:23.046Z,100527.70
2018-12-29T03:59:51.415Z,100525.52
2018-12-29T04:02:19.786Z,100513.65
2018-12-29T04:04:48.176Z,100521.14
2018-12-29T04:07:16.548Z,100529.47
2018-12-29T04:09:44.926Z,100525.09
2018-12-29T04:12:15.042Z,100528.22
2018-12-29T04:14:44.162Z,100526.03
2018-12-29T04:17:13.063Z,100522.08
2018-12-29T04:19:41.450Z,100515.99
2018-12-29T04:22:09.819Z,100509.88
2018-12-29T04:24:38.210Z,100511.66
2018-12-29T04:27:06.583Z,100515.61
2018-12-29T04:29:34.964Z,100510.33
2018-12-29T04:32:03.333Z,100506.83
2018-12-29T04:34:31.720Z,100506.83
2018-12-29T04:37:00.093Z,100507.70
2018-12-29T04:39:28.485Z,100509.46
2018-12-29T04:41:56.858Z,100514.35
2018-12-29T04:44:25.238Z,100508.21
2018-12-29T04:46:53.611Z,100504.77
2018-12-29T04:49:22.006Z,100500.36
2018-12-29T04:51:50.371Z,100499.49
2018-12-29T04:54:18.757Z,100492.06
2018-12-29T04:56:47.127Z,100491.64
2018-12-29T04:59:15.506Z,100486.81
2018-12-29T05:01:43.880Z,100480.77
2018-12-29T05:04:12.262Z,100486.05
2018-12-29T05:06:40.632Z,100478.66
2018-12-29T05:09:09.010Z,100488.27
2018-12-29T05:11:37.607Z,100495.31
2018-12-29T05:14:06.006Z,100494.86
2018-12-29T05:16:34.379Z,100491.84
2018-12-29T05:19:02.762Z,100491.36
2018-12-29T05:21:31.135Z,100495.31
2018-12-29T05:23:59.515Z,100486.56
2018-12-29T05:26:27.883Z,100489.65
2018-12-29T05:28:56.260Z,100492.28
2018-12-29T05:31:24.796Z,100484.44
2018-12-29T05:33:53.179Z,100485.31
2018-12-29T05:36:21.543Z,100483.58
2018-12-29T05:38:49.904Z,100487.95
2018-12-29T05:41:18.287Z,100489.33
2018-12-29T05:43:46.650Z,100491.48
2018-12-29T05:46:20.438Z,100494.19
2018-12-29T05:48:45.125Z,100503.83
2018-12-29T05:51:13.745Z,100499.88
2018-12-29T05:53:42.120Z,100504.28
2018-12-29T05:56:10.496Z,100512.19
2018-12-29T05:58:38.863Z,100495.95
2018-12-29T06:01:07.248Z,100499.52
2018-12-29T06:03:35.612Z,100508.30
2018-12-29T06:06:04.000Z,100517.11
2018-12-29T06:08:32.418Z,100514.47
2018-12-29T06:11:00.753Z,100522.00
2018-12-29T06:13:29.117Z,100522.00
2018-12-29T06:15:57.496Z,100532.55
2018-12-29T06:18:25.860Z,100536.05
2018-12-29T06:20:54.241Z,100536.88
2018-12-29T06:23:22.621Z,100543.54
2018-12-29T06:25:50.994Z,100541.38
2018-12-29T06:28:19.378Z,100552.38
2018-12-29T06:30:47.749Z,100554.95
2018-12-29T06:33:16.125Z,100557.98
2018-12-29T06:35:44.503Z,100556.28
2018-12-29T06:38:12.873Z,100553.70
2018-12-29T06:40:41.247Z,100554.57
2018-12-29T06:43:09.615Z,100557.66
2018-12-29T06:45:37.985Z,100564.25
2018-12-29T06:48:06.372Z,100560.80
2018-12-29T06:50:34.746Z,100578.75
2018-12-29T06:53:03.128Z,100573.92
2018-12-29T06:55:31.494Z,100580.06
2018-12-29T06:57:59.875Z,100577.88
2018-12-29T07:00:28.243Z,100573.59
2018-12-29T07:02:56.622Z,100573.54
2018-12-29T07:05:24.987Z,100564.38
2018-12-29T07:07:53.366Z,100568.83
2018-12-29T07:10:21.734Z,100560.98
2018-12-29T07:12:50.115Z,100568.83
2018-12-29T07:15:18.483Z,100560.50
2018-12-29T07:17:46.864Z,100552.15
2018-12-29T07:20:15.462Z,100564.88
2018-12-29T07:22:44.376Z,100564.02
2018-12-29T07:25:12.743Z,100569.22
2018-12-29T07:27:41.124Z,100573.17
2018-12-29T07:30:09.491Z,100571.47
2018-12-29T07:32:37.875Z,100574.98
2018-12-29T07:35:06.246Z,100579.77
2018-12-29T07:37:34.630Z,100581.15
2018-12-29T07:40:02.999Z,100584.66
2018-12-29T07:42:31.377Z,100583.27
2018-12-29T07:44:59.740Z,100581.57
2018-12-29T07:47:28.125Z,100582.02
2018-12-29T07:49:56.494Z,100577.20
2018-12-29T07:52:24.872Z,100573.23
2018-12-29T07:54:53.243Z,100568.90
2018-12-29T07:57:21.621Z,100570.22
2018-12-29T07:59:49.995Z,100568.41
2018-12-29T08:02:18.378Z,100565.00
2018-12-29T08:04:46.747Z,100577.70
2018-12-29T08:07:15.126Z,100576.00
2018-12-29T08:09:43.498Z,100566.77
2018-12-29T08:12:11.883Z,100567.22
2018-12-29T08:14:40.248Z,100567.28
2018-12-29T08:17:08.618Z,100566.47
2018-12-29T08:19:37.009Z,100567.41
2018-12-29T08:22:05.383Z,100565.27
2018-12-29T08:24:33.783Z,100565.27
2018-12-29T08:27:02.151Z,100564.89
2018-12-29T08:29:30.530Z,100561.44
2018-12-29T08:31:58.904Z,100560.99
2018-12-29T08:34:27.291Z,100561.50
2018-12-29T08:36:55.661Z,100558.06
2018-12-29T08:39:24.042Z,100550.66
2018-12-29T08:41:52.414Z,100556.86
2018-12-29T08:44:20.796Z,100555.13
2018-12-29T08:46:49.169Z,100556.92
2018-12-29T08:49:17.553Z,100548.95
2018-12-29T08:51:45.928Z,100550.78
2018-12-29T08:54:15.079Z,100553.00
2018-12-29T08:56:43.447Z,100554.73
2018-12-29T08:59:11.833Z,100555.06
2018-12-29T09:01:40.201Z,100559.50
2018-12-29T09:04:08.585Z,100561.71
2018-12-29T09:06:36.957Z,100559.56
2018-12-29T09:09:06.570Z,100563.51
2018-12-29T09:11:34.937Z,100558.23
2018-12-29T09:14:03.322Z,100564.34
2018-12-29T09:16:31.696Z,100560.00
2018-12-29T09:19:00.075Z,100566.09
2018-12-29T09:21:28.445Z,100562.19
2018-12-29T09:23:56.827Z,100560.88
2018-12-29T09:26:25.198Z,100551.73
2018-12-29T09:28:53.582Z,100548.71
2018-12-29T09:31:21.953Z,100555.63
2018-12-29T09:33:50.335Z,100555.63
2018-12-29T09:36:18.708Z,100559.25
2018-12-29T09:38:47.084Z,100550.95
2018-12-29T09:41:15.577Z,100549.67
2018-12-29T09:43:43.958Z,100550.48
2018-12-29T09:46:12.327Z,100546.47
2018-12-29T09:48:40.699Z,100539.88
2018-12-29T09:51:09.083Z,100554.80
2018-12-29T09:53:37.449Z,100547.39
2018-12-29T09:56:05.824Z,100548.71
2018-12-29T09:58:34.201Z,100542.63
2018-12-29T10:01:02.596Z,100543.05
2018-12-29T10:03:31.033Z,100541.73
2018-12-29T10:05:59.416Z,100535.66
2018-12-29T10:08:27.784Z,100538.23
2018-12-29T10:10:57.808Z,100536.47
2018-12-29T10:13:26.180Z,100525.92
2018-12-29T10:15:54.564Z,100518.91
2018-12-29T10:18:22.939Z,100515.89
2018-12-29T10:20:51.321Z,100505.80
2018-12-29T10:23:19.691Z,100494.39
2018-12-29T10:25:48.068Z,100492.56
2018-12-29T10:28:16.441Z,100485.11
2018-12-29T10:30:44.822Z,100486.03
2018-12-29T10:33:13.196Z,100478.58
2018-12-29T10:35:41.576Z,100480.31
2018-12-29T10:38:09.954Z,100472.41
2018-12-29T10:40:38.332Z,100471.92
2018-12-29T10:43:06.715Z,100468.03
2018-12-29T10:45:35.101Z,100463.25
2018-12-29T10:48:03.470Z,100459.69
2018-12-29T10:50:31.857Z,100458.75
2018-12-29T10:53:00.230Z,100453.55
2018-12-29T10:55:28.621Z,100458.81
2018-12-29T10:57:56.982Z,100447.37
2018-12-29T11:00:25.368Z,100439.92
2018-12-29T11:02:53.746Z,100432.88
2018-12-29T11:05:22.127Z,100432.02
2018-12-29T11:07:50.497Z,100428.06
2018-12-29T11:10:18.874Z,100424.56
2018-12-29T11:12:47.262Z,100433.33
2018-12-29T11:15:16.657Z,100429.77
2018-12-29T11:17:45.085Z,100434.20
2018-12-29T11:20:13.466Z,100430.25
2018-12-29T11:22:41.843Z,100440.72
2018-12-29T11:25:10.215Z,100445.55
2018-12-29T11:27:38.600Z,100434.14
2018-12-29T11:30:06.983Z,100436.70
2018-12-29T11:32:35.373Z,100426.67
2018-12-29T11:35:03.815Z,100423.14
2018-12-29T11:37:32.196Z,100419.58
2018-12-29T11:40:00.568Z,100402.90
2018-12-29T11:42:28.951Z,100393.22
2018-12-29T11:44:57.332Z,100376.09
2018-12-29T11:47:25.719Z,100365.17
2018-12-29T11:49:54.093Z,100354.63
2018-12-29T11:52:23.451Z,100344.09
2018-12-29T11:54:51.819Z,100350.19
2018-12-29T11:57:20.197Z,100344.02
2018-12-29T11:59:48.569Z,100346.17
2018-12-29T12:02:24.305Z,100353.25
2018-12-29T12:04:47.042Z,100364.62
2018-12-29T12:07:15.417Z,100371.63
2018-12-29T12:09:43.791Z,100361.92
2018-12-29T12:12:12.171Z,100375.09
2018-12-29T12:14:40.580Z,100363.72
2018-12-29T12:17:09.365Z,100375.52
2018-12-29T12:19:37.738Z,100373.33
2018-12-29T12:22:06.135Z,100372.43
2018-12-29T12:24:34.499Z,100374.58
2018-12-29T12:27:02.880Z,100370.18
2018-12-29T12:29:31.257Z,100354.38
2018-12-29T12:31:59.629Z,100347.72
2018-12-29T12:34:28.000Z,100350.80
2018-12-29T12:36:56.421Z,100341.58
2018-12-29T12:39:24.744Z,100336.30
2018-12-29T12:41:53.111Z,100336.30
2018-12-29T12:44:21.491Z,100352.53
2018-12-29T12:46:49.865Z,100373.63
2018-12-29T12:49:18.237Z,100370.05
2018-12-29T12:51:47.091Z,100355.55
2018-12-29T12:54:15.471Z,100347.27
2018-12-29T12:56:43.863Z,100342.83
2018-12-29T12:59:12.415Z,100331.83
2018-12-29T13:01:40.781Z,100323.93
2018-12-29T13:04:09.161Z,100328.30
2018-12-29T13:06:37.532Z,100331.25
2018-12-29T13:09:06.682Z,100340.09
2018-12-29T13:11:35.050Z,100336.14
2018-12-29T13:14:03.441Z,100308.91
2018-12-29T13:16:31.806Z,100283.01
2018-12-29T13:19:00.187Z,100281.31
2018-12-29T13:21:28.558Z,100298.83
2018-12-29T13:23:56.939Z,100281.63
2018-12-29T13:26:25.310Z,100281.63
2018-12-29T13:28:53.829Z,100276.35
2018-12-29T13:31:22.133Z,100292.97
2018-12-29T13:33:50.515Z,100292.13
2018-12-29T13:36:18.891Z,100281.52
2018-12-29T13:38:47.479Z,100273.20
2018-12-29T13:41:15.852Z,100275.38
2018-12-29T13:43:44.231Z,100278.47
2018-12-29T13:46:12.598Z,100274.94
2018-12-29T13:48:40.978Z,100274.38
2018-12-29T13:51:09.346Z,100254.30
2018-12-29T13:53:37.736Z,100252.05
2018-12-29T13:56:06.107Z,100250.27
2018-12-29T13:58:34.485Z,100270.05
2018-12-29T14:01:02.862Z,100267.41
2018-12-29T14:03:31.234Z,100277.02
2018-12-29T14:05:59.614Z,100266.89
2018-12-29T14:08:27.982Z,100266.89
2018-12-29T14:10:57.718Z,100255.48
2018-12-29T14:13:26.013Z,100259.05
2018-12-29T14:15:54.392Z,100272.23
2018-12-29T14:18:28.240Z,100263.14
2018-12-29T14:20:52.868Z,100255.62
2018-12-29T14:23:21.248Z,100248.16
2018-12-29T14:25:49.630Z,100238.48
2018-12-29T14:28:18.008Z,100237.09
2018-12-29T14:30:46.392Z,100228.80
2018-12-29T14:33:14.766Z,100202.45
2018-12-29T14:35:43.143Z,100198.08
2018-12-29T14:38:11.517Z,100180.11
2018-12-29T14:40:39.899Z,100194.13
2018-12-29T14:43:08.271Z,100207.79
2018-12-29T14:45:36.653Z,100219.30
2018-12-29T14:48:05.018Z,100225.89
2018-12-29T14:50:33.395Z,100223.33
2018-12-29T14:53:01.763Z,100223.84
2018-12-29T14:55:30.149Z,100223.77
2018-12-29T14:57:58.513Z,100209.35
2018-12-29T15:00:26.896Z,100201.06
2018-12-29T15:02:55.267Z,100191.84
2018-12-29T15:05:23.650Z,100197.48
2018-12-29T15:07:52.018Z,100197.56
2018-12-29T15:10:20.408Z,100192.29
2018-12-29T15:12:48.781Z,100182.61
2018-12-29T15:15:18.213Z,100184.38
2018-12-29T15:17:46.577Z,100170.82
2018-12-29T15:20:15.234Z,100173.05
2018-12-29T15:22:43.608Z,100176.13
2018-12-29T15:25:11.992Z,100176.61
2018-12-29T15:27:40.637Z,100178.77
2018-12-29T15:30:09.012Z,100173.05
2018-12-29T15:32:37.395Z,100165.14
2018-12-29T15:35:06.040Z,100157.23
2018-12-29T15:37:34.416Z,100151.09
2018-12-29T15:40:02.793Z,100152.41
2018-12-29T15:42:31.213Z,100146.31
2018-12-29T15:44:59.582Z,100130.50
2018-12-29T15:47:27.963Z,100115.59
2018-12-29T15:49:56.608Z,100109.48
2018-12-29T15:52:24.994Z,100093.67
2018-12-29T15:54:53.362Z,100105.53
2018-12-29T15:57:21.767Z,100107.69
2018-12-29T15:59:50.513Z,100106.85
2018-12-29T16:02:18.897Z,100111.26
2018-12-29T16:04:47.548Z,100112.19
2018-12-29T16:07:15.922Z,100128.38
2018-12-29T16:09:44.293Z,100138.99
2018-12-29T16:12:12.955Z,100157.44
2018-12-29T16:14:41.317Z,100170.09
2018-12-29T16:17:09.699Z,100190.38
2018-12-29T16:19:38.067Z,100184.59
2018-12-29T16:22:06.448Z,100169.30
2018-12-29T16:24:34.809Z,100169.23
2018-12-29T16:27:03.460Z,100148.15
2018-12-29T16:29:31.839Z,100149.53
2018-12-29T16:32:00.204Z,100144.64
2018-12-29T16:34:28.584Z,100144.27
2018-12-29T16:36:56.954Z,100156.92
2018-12-29T16:39:25.342Z,100157.38
2018-12-29T16:41:53.702Z,100156.92
2018-12-29T16:44:22.083Z,100153.42
2018-12-29T16:46:50.629Z,100153.48
2018-12-29T16:49:19.009Z,100147.77
2018-12-29T16:51:47.373Z,100145.13
2018-12-29T16:54:15.760Z,100135.42
2018-12-29T16:56:44.127Z,100137.61
2018-12-29T16:59:12.509Z,100141.56
2018-12-29T17:01:40.881Z,100144.20
2018-12-29T17:04:09.259Z,100141.18
2018-12-29T17:06:37.806Z,100136.73
2018-12-29T17:09:06.726Z,100134.97
2018-12-29T17:11:35.101Z,100129.36
2018-12-29T17:14:03.487Z,100120.09
2018-12-29T17:16:32.143Z,100124.50
2018-12-29T17:19:00.527Z,100126.20
2018-12-29T17:21:28.897Z,100119.23
2018-12-29T17:23:57.278Z,100113.03
2018-12-29T17:26:25.645Z,100113.09
2018-12-29T17:28:54.013Z,100099.92
2018-12-29T17:31:22.572Z,100093.27
2018-12-29T17:33:50.943Z,100092.88
2018-12-29T17:36:19.335Z,100089.38
2018-12-29T17:38:47.724Z,100089.38
2018-12-29T17:41:16.116Z,100090.70
2018-12-29T17:43:44.863Z,100086.37
2018-12-29T17:46:13.249Z,100085.43
2018-12-29T17:48:41.619Z,100085.43
2018-12-29T17:51:09.994Z,100082.27
2018-12-29T17:53:38.367Z,100074.44
2018-12-29T17:56:06.752Z,100073.98
2018-12-29T17:58:35.123Z,100062.12
2018-12-29T18:01:03.505Z,100062.12
2018-12-29T18:03:31.878Z,100072.25
2018-12-29T18:06:00.326Z,100074.81
2018-12-29T18:08:28.692Z,100067.33
2018-12-29T18:10:57.079Z,100070.34
2018-12-29T18:13:25.615Z,100073.84
2018-12-29T18:15:53.989Z,100068.95
2018-12-29T18:18:22.495Z,100061.45
2018-12-29T18:20:50.934Z,100061.45
2018-12-29T18:23:19.699Z,100056.19
2018-12-29T18:25:48.066Z,100062.77
2018-12-29T18:28:16.542Z,100065.34
2018-12-29T18:30:44.903Z,100048.66
2018-12-29T18:33:13.562Z,100060.07
2018-12-29T18:35:41.934Z,100044.33
2018-12-29T18:38:10.318Z,100045.09
2018-12-29T18:40:38.684Z,100044.71
2018-12-29T18:43:07.070Z,100035.03
2018-12-29T18:45:35.727Z,100034.63
2018-12-29T18:48:04.403Z,100041.63
2018-12-29T18:50:32.771Z,100032.85
2018-12-29T18:53:01.142Z,100026.72
2018-12-29T18:55:29.535Z,100028.90
2018-12-29T18:57:57.906Z,100029.77
2018-12-29T19:00:26.564Z,100034.17
2018-12-29T19:02:54.953Z,100030.22
2018-12-29T19:05:23.348Z,100027.13
2018-12-29T19:07:51.722Z,100026.27
2018-12-29T19:10:20.114Z,100029.84
2018-12-29T19:12:48.488Z,100020.13
2018-12-29T19:15:17.159Z,100015.72
2018-12-29T19:17:45.804Z,100011.77
2018-12-29T19:20:14.470Z,100017.48
2018-12-29T19:22:42.863Z,100035.94
2018-12-29T19:25:11.229Z,100028.90
2018-12-29T19:27:39.618Z,100016.17
2018-12-29T19:30:08.261Z,100024.95
2018-12-29T19:32:36.646Z,100031.01
2018-12-29T19:35:05.535Z,100027.58
2018-12-29T19:37:34.207Z,100031.91
2018-12-29T19:40:02.575Z,100024.95
2018-12-29T19:42:31.266Z,100022.69
2018-12-29T19:44:59.636Z,100022.69
2018-12-29T19:47:28.007Z,100037.19
2018-12-29T19:49:56.663Z,100024.00
2018-12-29T19:52:25.036Z,100028.83
2018-12-29T19:54:53.416Z,100023.94
2018-12-29T19:57:22.057Z,100015.20
2018-12-29T19:59:50.460Z,100013.87
2018-12-29T20:02:19.205Z,100023.48
2018-12-29T20:04:47.762Z,100025.25
2018-12-29T20:07:16.417Z,100016.52
2018-12-29T20:09:45.067Z,100005.56
2018-12-29T20:12:13.438Z,100013.39
2018-12-29T20:14:41.816Z,100005.48
2018-12-29T20:17:10.184Z,100006.35
2018-12-29T20:19:38.564Z,100008.12
2018-12-29T20:22:07.214Z,100001.00
2018-12-29T20:24:35.596Z,100012.41
2018-12-29T20:27:04.198Z,100003.19
2018-12-29T20:29:32.586Z,100003.19
2018-12-29T20:32:00.952Z,100007.14
2018-12-29T20:34:29.600Z,99997.98
2018-12-29T20:36:57.976Z,100002.81
2018-12-29T20:39:26.346Z,99993.97
2018-12-29T20:41:55.426Z,99990.02
2018-12-29T20:44:23.778Z,100004.44
2018-12-29T20:46:52.151Z,100013.73
2018-12-29T20:49:20.934Z,100013.28
2018-12-29T20:51:49.334Z,100003.56
2018-12-29T20:54:17.716Z,100003.56
2018-12-29T20:56:46.082Z,99987.75
2018-12-29T20:59:14.461Z,99985.98
2018-12-29T21:01:42.909Z,100000.03
2018-12-29T21:04:11.346Z,99993.89
2018-12-29T21:06:39.721Z,99993.03
2018-12-29T21:09:08.766Z,99999.61
2018-12-29T21:11:37.144Z,99994.76
2018-12-29T21:14:05.508Z,99986.84
2018-12-29T21:16:34.161Z,99991.70
2018-12-29T21:19:02.528Z,99988.16
2018-12-29T21:21:30.913Z,99971.90
2018-12-29T21:23:59.278Z,100003.11
2018-12-29T21:26:27.656Z,99992.50
2018-12-29T21:28:56.013Z,99989.86
2018-12-29T21:31:24.390Z,99999.09
2018-12-29T21:33:52.758Z,100001.27
2018-12-29T21:36:21.257Z,100004.77
2018-12-29T21:38:49.631Z,99999.95
2018-12-29T21:41:18.010Z,100012.27
2018-12-29T21:43:46.650Z,100004.84
2018-12-29T21:46:15.034Z,100009.17
2018-12-29T21:48:43.419Z,100015.31
2018-12-29T21:51:11.783Z,100006.99
2018-12-29T21:53:40.154Z,100003.45
2018-12-29T21:56:08.535Z,100012.67
2018-12-29T21:58:37.078Z,100002.52
2018-12-29T22:01:05.459Z,100010.88
2018-12-29T22:03:33.830Z,100005.15
2018-12-29T22:06:02.214Z,100014.38
2018-12-29T22:08:30.580Z,100014.38
2018-12-29T22:10:58.959Z,100004.77
2018-12-29T22:13:27.332Z,100002.52
2018-12-29T22:15:55.714Z,100002.52
2018-12-29T22:18:25.055Z,100006.84
2018-12-29T22:20:53.431Z,100009.55
2018-12-29T22:23:21.819Z,100006.92
2018-12-29T22:25:50.474Z,100013.13
2018-12-29T22:28:18.850Z,100010.80
2018-12-29T22:30:47.293Z,100016.55
2018-12-29T22:33:15.675Z,100016.07
2018-12-29T22:35:44.042Z,100022.20
2018-12-29T22:38:12.422Z,100026.61
2018-12-29T22:40:41.139Z,100022.20
2018-12-29T22:43:09.518Z,100025.78
2018-12-29T22:45:37.892Z,100022.20
2018-12-29T22:48:06.280Z,100030.56
2018-12-29T22:50:41.026Z,100038.09
2018-12-29T22:53:04.753Z,100041.52
2018-12-29T22:55:33.121Z,100044.61
2018-12-29T22:58:08.393Z,100080.20
2018-12-29T23:00:35.993Z,100082.38
2018-12-29T23:03:04.371Z,100057.41
2018-12-29T23:05:32.747Z,100064.37
2018-12-29T23:08:01.122Z,100070.06
2018-12-29T23:10:29.495Z,100088.97
2018-12-29T23:12:58.157Z,100085.47
2018-12-29T23:15:26.527Z,100089.42
2018-12-29T23:17:54.920Z,100089.88
2018-12-29T23:20:23.289Z,100075.38
2018-12-29T23:22:52.018Z,100083.70
2018-12-29T23:25:20.395Z,100085.47
2018-12-29T23:27:48.777Z,100081.06
2018-12-29T23:30:17.151Z,100074.47
2018-12-29T23:32:45.818Z,100086.78
2018-12-29T23:35:14.194Z,100080.64
2018-12-29T23:37:42.562Z,100091.67
2018-12-29T23:40:10.947Z,100091.19
2018-12-29T23:42:39.316Z,100091.61
2018-12-29T23:45:07.769Z,100086.86
2018-12-29T23:47:36.411Z,100082.83
2018-12-29T23:50:06.610Z,100079.33
2018-12-29T23:52:34.978Z,100084.14
2018-12-29T23:55:03.353Z,100097.33
2018-12-29T23:57:31.725Z,100097.78
